createdAt,value
2023-04-28T00:01:20.965Z,53.25
2023-04-28T00:05:25.570Z,54.12
2023-04-28T00:09:28.763Z,54.25
2023-04-28T00:13:31.790Z,54.56
2023-04-28T00:17:35.128Z,54.35
2023-04-28T00:21:39.848Z,54.41
2023-04-28T00:25:42.909Z,54.24
2023-04-28T00:29:46.002Z,54.34
2023-04-28T00:33:52.838Z,54.22
2023-04-28T00:37:57.261Z,54.67
2023-04-28T00:42:00.432Z,54.69
2023-04-28T00:46:03.772Z,53.93
2023-04-28T00:50:07.810Z,54.02
2023-04-28T00:54:15.312Z,54.02
2023-04-28T00:58:18.654Z,54.24
2023-04-28T01:02:21.926Z,54.13
2023-04-28T01:06:25.480Z,53.92
2023-04-28T01:10:33.665Z,54.31
2023-04-28T01:14:44.534Z,54.27
2023-04-28T01:18:49.242Z,54.36
2023-04-28T01:22:52.352Z,54.62
2023-04-28T01:26:57.257Z,54.82
2023-04-28T01:31:00.311Z,54.74
2023-04-28T01:35:03.714Z,54.86
2023-04-28T01:39:07.018Z,54.92
2023-04-28T01:43:11.512Z,54.96
2023-04-28T01:47:14.601Z,55.09
2023-04-28T01:51:17.791Z,55.06
2023-04-28T01:55:21.577Z,55.18
2023-04-28T01:59:27.030Z,55.45
2023-04-28T02:03:30.567Z,55.69
2023-04-28T02:07:33.818Z,55.89
2023-04-28T02:11:36.948Z,55.73
2023-04-28T02:15:42.732Z,55.80
2023-04-28T02:19:45.781Z,55.78
2023-04-28T02:23:50.538Z,55.87
2023-04-28T02:27:53.628Z,56.05
2023-04-28T02:31:58.133Z,55.91
2023-04-28T02:36:01.480Z,56.04
2023-04-28T02:40:05.201Z,56.05
2023-04-28T02:44:08.218Z,56.21
2023-04-28T02:48:12.714Z,56.33
2023-04-28T02:52:16.003Z,56.12
2023-04-28T02:56:19.323Z,56.50
2023-04-28T03:00:22.610Z,56.48
2023-04-28T03:04:28.624Z,56.68
2023-04-28T03:08:31.867Z,56.57
2023-04-28T03:12:34.904Z,56.76
2023-04-28T03:16:38.031Z,56.72
2023-04-28T03:20:42.625Z,56.73
2023-04-28T03:24:46.090Z,56.97
2023-04-28T03:28:49.137Z,56.95
2023-04-28T03:32:52.883Z,57.13
2023-04-28T03:36:57.349Z,56.88
2023-04-28T03:41:05.506Z,57.04
2023-04-28T03:45:31.654Z,57.03
2023-04-28T03:49:35.078Z,57.15
2023-04-28T03:53:39.775Z,57.31
2023-04-28T03:57:43.256Z,57.25
2023-04-28T04:01:46.268Z,57.54
2023-04-28T04:05:49.698Z,57.65
2023-04-28T04:09:54.184Z,57.49
2023-04-28T04:13:57.382Z,57.73
2023-04-28T04:18:01.970Z,57.83
2023-04-28T04:22:14.328Z,58.01
2023-04-28T04:26:19.182Z,58.04
2023-04-28T04:30:24.500Z,58.39
2023-04-28T04:34:27.665Z,58.14
2023-04-28T04:38:31.159Z,58.27
2023-04-28T04:42:39.997Z,58.33
2023-04-28T04:46:46.170Z,58.42
2023-04-28T04:50:49.752Z,58.54
2023-04-28T04:54:53.216Z,58.43
2023-04-28T04:58:57.980Z,58.46
2023-04-28T05:03:24.410Z,58.42
2023-04-28T05:07:27.948Z,58.48
2023-04-28T05:11:32.342Z,58.76
2023-04-28T05:15:37.038Z,58.79
2023-04-28T05:19:57.351Z,58.74
2023-04-28T05:24:00.874Z,58.84
2023-04-28T05:28:07.566Z,58.59
2023-04-28T05:32:12.467Z,58.86
2023-04-28T05:36:17.079Z,58.89
2023-04-28T05:40:22.309Z,58.82
2023-04-28T05:44:25.768Z,58.76
2023-04-28T05:48:30.259Z,58.70
2023-04-28T05:52:33.390Z,58.65
2023-04-28T05:56:36.654Z,58.64
2023-04-28T06:00:39.962Z,58.37
2023-04-28T06:04:44.886Z,58.62
2023-04-28T06:08:48.160Z,58.26
2023-04-28T06:12:51.200Z,57.94
2023-04-28T06:16:54.282Z,57.58
2023-04-28T06:20:58.706Z,57.64
2023-04-28T06:25:01.818Z,56.95
2023-04-28T06:29:10.825Z,56.81
2023-04-28T06:33:13.929Z,56.49
2023-04-28T06:37:19.074Z,56.05
2023-04-28T06:41:24.068Z,55.40
2023-04-28T06:45:28.693Z,54.34
2023-04-28T06:49:33.232Z,54.18
2023-04-28T06:53:38.379Z,53.79
2023-04-28T07:01:47.780Z,52.36
2023-04-28T07:05:51.132Z,52.05
2023-04-28T07:09:56.036Z,51.99
2023-04-28T07:13:59.055Z,51.65
2023-04-28T07:18:02.149Z,52.07
2023-04-28T07:22:05.433Z,51.60
2023-04-28T07:26:09.832Z,51.33
2023-04-28T07:30:26.531Z,51.30
2023-04-28T07:34:30.726Z,51.77
2023-04-28T07:38:35.272Z,50.86
2023-04-28T07:42:39.668Z,50.16
2023-04-28T07:46:42.778Z,50.34
2023-04-28T07:50:45.978Z,50.46
2023-04-28T07:54:49.021Z,49.95
2023-04-28T07:58:53.810Z,49.92
2023-04-28T08:02:57.786Z,49.56
2023-04-28T08:07:01.088Z,49.46
2023-04-28T08:11:04.214Z,48.31
2023-04-28T08:15:10.381Z,48.72
2023-04-28T08:19:13.433Z,48.25
2023-04-28T08:23:16.556Z,48.51
2023-04-28T08:27:19.666Z,48.91
2023-04-28T08:31:24.177Z,48.69
2023-04-28T08:35:27.503Z,48.33
2023-04-28T08:39:31.770Z,47.54
2023-04-28T08:43:36.349Z,47.33
2023-04-28T08:47:45.950Z,47.32
2023-04-28T08:51:54.283Z,47.71
2023-04-28T08:55:59.042Z,46.32
2023-04-28T09:00:02.747Z,45.86
2023-04-28T09:04:08.375Z,45.81
2023-04-28T09:08:12.332Z,45.49
2023-04-28T09:12:15.385Z,45.82
2023-04-28T09:16:18.812Z,45.80
2023-04-28T09:20:24.392Z,45.24
2023-04-28T09:24:29.567Z,44.33
2023-04-28T09:28:33.247Z,44.47
2023-04-28T09:32:36.388Z,44.26
2023-04-28T09:36:40.789Z,44.04
2023-04-28T09:40:56.725Z,44.26
2023-04-28T09:45:00.172Z,43.60
2023-04-28T09:49:03.318Z,44.00
2023-04-28T09:53:13.098Z,44.06
2023-04-28T09:57:17.037Z,44.21
2023-04-28T10:01:20.276Z,43.79
2023-04-28T10:05:24.800Z,43.32
2023-04-28T10:09:29.709Z,42.99
2023-04-28T10:13:33.596Z,43.95
2023-04-28T10:17:38.404Z,43.20
2023-04-28T10:21:49.456Z,43.08
2023-04-28T10:25:58.251Z,42.94
2023-04-28T10:30:26.253Z,42.07
2023-04-28T10:34:31.437Z,43.04
2023-04-28T10:38:35.061Z,42.18
2023-04-28T10:42:56.459Z,42.33
2023-04-28T10:47:03.906Z,42.75
2023-04-28T10:51:34.924Z,43.07
2023-04-28T10:55:39.984Z,42.44
2023-04-28T10:59:44.412Z,41.66
2023-04-28T11:03:51.970Z,41.78
2023-04-28T11:08:33.293Z,41.29
2023-04-28T11:12:36.628Z,40.69
2023-04-28T11:16:51.809Z,40.69
2023-04-28T11:20:58.701Z,40.68
2023-04-28T11:25:03.213Z,41.23
2023-04-28T11:29:06.658Z,40.84
2023-04-28T11:33:11.289Z,40.01
2023-04-28T11:37:17.043Z,40.75
2023-04-28T11:41:21.125Z,40.10
2023-04-28T11:45:24.145Z,40.98
2023-04-28T11:49:30.400Z,40.95
2023-04-28T11:53:43.077Z,40.59
2023-04-28T11:57:46.384Z,39.69
2023-04-28T12:01:50.719Z,40.02
2023-04-28T12:05:55.330Z,40.30
2023-04-28T12:10:12.546Z,40.17
2023-04-28T12:14:15.935Z,40.50
2023-04-28T12:18:19.530Z,40.15
2023-04-28T12:22:24.872Z,40.14
2023-04-28T12:26:28.068Z,40.36
2023-04-28T12:30:33.439Z,40.26
2023-04-28T12:34:37.269Z,39.81
2023-04-28T12:38:49.066Z,40.21
2023-04-28T12:42:52.331Z,40.76
2023-04-28T12:46:56.186Z,41.06
2023-04-28T12:50:59.195Z,41.62
2023-04-28T12:55:03.598Z,41.55
2023-04-28T12:59:06.916Z,41.45
2023-04-28T13:03:10.245Z,40.72
2023-04-28T13:07:13.673Z,40.96
2023-04-28T13:11:22.379Z,40.76
2023-04-28T13:15:27.267Z,40.78
2023-04-28T13:19:31.270Z,40.81
2023-04-28T13:23:34.493Z,41.09
2023-04-28T13:27:40.107Z,41.27
2023-04-28T13:31:44.835Z,41.58
2023-04-28T13:35:47.939Z,41.81
2023-04-28T13:39:51.103Z,42.07
2023-04-28T13:43:55.734Z,42.26
2023-04-28T13:47:59.087Z,42.10
2023-04-28T13:52:03.635Z,42.10
2023-04-28T13:56:07.997Z,42.03
2023-04-28T14:00:13.700Z,41.88
2023-04-28T14:04:17.027Z,41.98
2023-04-28T14:08:20.878Z,42.37
2023-04-28T14:12:24.255Z,42.40
2023-04-28T14:16:29.101Z,42.19
2023-04-28T14:20:32.432Z,42.86
2023-04-28T14:24:35.612Z,43.37
2023-04-28T14:28:38.646Z,43.80
2023-04-28T14:32:43.116Z,43.47
2023-04-28T14:36:46.794Z,43.41
2023-04-28T14:40:50.157Z,43.18
2023-04-28T14:44:54.561Z,43.50
2023-04-28T14:48:59.450Z,43.66
2023-04-28T14:53:05.634Z,43.79
2023-04-28T14:57:08.769Z,44.67
2023-04-28T15:01:11.965Z,45.36
2023-04-28T15:05:16.397Z,45.34
2023-04-28T15:09:19.486Z,45.71
2023-04-28T15:13:25.223Z,45.85
2023-04-28T15:17:28.491Z,46.20
2023-04-28T15:21:33.008Z,46.32
2023-04-28T15:25:36.189Z,46.65
2023-04-28T15:29:39.226Z,46.89
2023-04-28T15:33:42.251Z,46.70
2023-04-28T15:37:49.138Z,47.37
2023-04-28T15:41:52.363Z,48.06
2023-04-28T15:45:55.627Z,48.41
2023-04-28T15:49:59.570Z,49.82
2023-04-28T15:54:03.968Z,50.67
2023-04-28T15:58:08.663Z,51.09
2023-04-28T16:02:11.663Z,51.68
2023-04-28T16:06:14.804Z,52.05
2023-04-28T16:10:19.209Z,52.96
2023-04-28T16:14:22.447Z,53.44
2023-04-28T16:18:25.747Z,53.79
2023-04-28T16:22:29.798Z,53.87
2023-04-28T16:26:34.314Z,54.65
2023-04-28T16:30:37.331Z,55.13
2023-04-28T16:34:40.362Z,55.47
2023-04-28T16:38:45.727Z,56.07
2023-04-28T16:42:50.855Z,56.36
2023-04-28T16:46:54.280Z,56.77
2023-04-28T16:50:57.340Z,57.42
2023-04-28T16:55:00.549Z,58.53
2023-04-28T16:59:04.979Z,59.21
2023-04-28T17:03:08.173Z,60.09
2023-04-28T17:07:11.505Z,60.61
2023-04-28T17:11:17.190Z,61.05
2023-04-28T17:15:21.853Z,61.94
2023-04-28T17:19:25.002Z,62.28
2023-04-28T17:23:28.278Z,63.24
2023-04-28T17:27:31.646Z,63.74
2023-04-28T17:31:38.787Z,63.97
2023-04-28T17:35:42.305Z,64.25
2023-04-28T17:39:45.333Z,64.83
2023-04-28T17:43:49.002Z,65.26
2023-04-28T17:47:53.467Z,65.17
2023-04-28T17:51:56.574Z,65.53
2023-04-28T17:56:01.555Z,66.04
2023-04-28T18:00:05.300Z,66.33
2023-04-28T18:04:16.253Z,66.57
2023-04-28T18:08:19.250Z,67.01
2023-04-28T18:12:22.364Z,67.66
2023-04-28T18:16:26.102Z,68.04
2023-04-28T18:20:30.600Z,68.20
2023-04-28T18:24:33.724Z,68.32
2023-04-28T18:28:37.663Z,68.48
2023-04-28T18:32:40.764Z,68.63
2023-04-28T18:36:45.250Z,68.92
2023-04-28T18:40:48.299Z,69.00
2023-04-28T18:44:53.821Z,69.25
2023-04-28T18:48:57.368Z,69.84
2023-04-28T18:53:02.520Z,69.79
2023-04-28T18:57:06.664Z,69.97
2023-04-28T19:01:14.883Z,70.48
2023-04-28T19:05:18.052Z,70.48
2023-04-28T19:09:22.612Z,70.51
2023-04-28T19:13:25.753Z,71.08
2023-04-28T19:17:29.553Z,70.94
2023-04-28T19:21:35.485Z,71.09
2023-04-28T19:25:40.011Z,71.06
2023-04-28T19:29:43.553Z,71.54
2023-04-28T19:33:46.541Z,71.50
2023-04-28T19:37:49.935Z,71.46
2023-04-28T19:41:54.867Z,71.63
2023-04-28T19:45:58.183Z,71.75
2023-04-28T19:50:01.492Z,72.04
2023-04-28T19:54:04.579Z,72.35
2023-04-28T19:58:10.157Z,72.50
2023-04-28T20:02:13.410Z,72.52
2023-04-28T20:06:17.744Z,72.49
2023-04-28T20:10:20.918Z,72.23
2023-04-28T20:14:25.772Z,72.74
2023-04-28T20:18:29.088Z,72.99
2023-04-28T20:22:32.372Z,73.15
2023-04-28T20:26:35.630Z,73.12
2023-04-28T20:30:41.980Z,73.20
2023-04-28T20:34:45.564Z,73.28
2023-04-28T20:38:49.203Z,73.27
2023-04-28T20:42:52.356Z,73.36
2023-04-28T20:46:57.303Z,73.26
2023-04-28T20:51:02.857Z,73.62
2023-04-28T20:55:07.049Z,73.74
2023-04-28T20:59:10.169Z,74.00
2023-04-28T21:03:15.844Z,74.06
2023-04-28T21:07:19.068Z,74.33
2023-04-28T21:11:22.091Z,74.29
2023-04-28T21:15:25.792Z,74.26
2023-04-28T21:19:30.375Z,74.51
2023-04-28T21:23:33.409Z,74.84
2023-04-28T21:27:36.478Z,74.65
2023-04-28T21:31:39.742Z,74.98
2023-04-28T21:35:44.307Z,75.04
2023-04-28T21:39:47.392Z,74.98
2023-04-28T21:43:50.383Z,75.34
2023-04-28T21:47:53.514Z,75.40
2023-04-28T21:51:58.020Z,75.54
2023-04-28T21:56:01.075Z,75.90
2023-04-28T22:00:06.366Z,75.73
2023-04-28T22:04:16.848Z,75.96
2023-04-28T22:08:21.747Z,76.22
2023-04-28T22:12:24.955Z,75.87
2023-04-28T22:16:28.377Z,76.34
2023-04-28T22:20:32.111Z,75.97
2023-04-28T22:24:37.185Z,75.94
2023-04-28T22:28:40.196Z,75.79
2023-04-28T22:32:44.666Z,75.43
2023-04-28T22:36:47.905Z,75.74
2023-04-28T22:40:52.611Z,75.82
2023-04-28T22:44:55.623Z,75.48
2023-04-28T22:48:59.022Z,75.90
2023-04-28T22:53:03.884Z,75.99
2023-04-28T22:57:08.276Z,75.77
2023-04-28T23:01:11.663Z,76.13
2023-04-28T23:05:14.879Z,76.05
2023-04-28T23:09:17.917Z,76.08
2023-04-28T23:13:22.392Z,75.99
2023-04-28T23:17:25.520Z,76.29
2023-04-28T23:21:29.494Z,76.23
2023-04-28T23:25:32.561Z,76.42
2023-04-28T23:29:37.818Z,76.40
2023-04-28T23:33:40.965Z,76.38
2023-04-28T23:37:44.264Z,76.35
2023-04-28T23:41:47.358Z,76.40
2023-04-28T23:45:51.935Z,76.52
2023-04-28T23:49:55.068Z,76.63
2023-04-28T23:53:58.076Z,76.91
2023-04-28T23:58:01.232Z,76.95
